createdAt,value
2023-05-09T00:00:22.432Z,1.13
2023-05-09T00:01:22.482Z,1.13
2023-05-09T00:02:22.569Z,1.13
2023-05-09T00:03:22.794Z,1.14
2023-05-09T00:04:22.712Z,1.12
2023-05-09T00:05:22.665Z,1.13
2023-05-09T00:06:22.770Z,1.12
2023-05-09T00:07:22.724Z,1.13
2023-05-09T00:08:22.763Z,1.13
2023-05-09T00:09:22.786Z,1.14
2023-05-09T00:10:22.839Z,1.11
2023-05-09T00:11:22.896Z,1.11
2023-05-09T00:12:22.923Z,1.12
2023-05-09T00:13:23.062Z,1.11
2023-05-09T00:14:23.022Z,1.11
2023-05-09T00:15:23.081Z,1.13
2023-05-09T00:16:23.174Z,1.10
2023-05-09T00:17:23.169Z,1.11
2023-05-09T00:18:23.186Z,1.10
2023-05-09T00:19:23.233Z,1.08
2023-05-09T00:20:23.278Z,1.09
2023-05-09T00:21:23.367Z,1.08
2023-05-09T00:22:23.539Z,1.10
2023-05-09T00:23:23.422Z,1.09
2023-05-09T00:24:23.469Z,1.09
2023-05-09T00:25:23.534Z,1.09
2023-05-09T00:26:23.559Z,1.08
2023-05-09T00:27:23.585Z,1.10
2023-05-09T00:28:23.668Z,1.09
2023-05-09T00:29:23.687Z,1.07
2023-05-09T00:30:23.726Z,1.08
2023-05-09T00:31:23.752Z,1.06
2023-05-09T00:32:23.808Z,1.06
2023-05-09T00:33:23.858Z,1.08
2023-05-09T00:34:23.886Z,1.07
2023-05-09T00:35:23.949Z,1.06
2023-05-09T00:36:23.958Z,1.07
2023-05-09T00:37:24.024Z,1.05
2023-05-09T00:38:24.161Z,1.04
2023-05-09T00:39:24.149Z,1.04
2023-05-09T00:40:24.176Z,1.06
2023-05-09T00:41:24.194Z,1.05
2023-05-09T00:42:24.260Z,1.05
2023-05-09T00:43:24.278Z,1.05
2023-05-09T00:44:24.318Z,1.05
2023-05-09T00:45:24.383Z,1.06
2023-05-09T00:46:24.446Z,1.04
2023-05-09T00:47:24.507Z,1.03
2023-05-09T00:48:24.506Z,1.04
2023-05-09T00:49:24.576Z,1.04
2023-05-09T00:50:24.623Z,1.04
2023-05-09T00:51:24.656Z,1.00
2023-05-09T00:52:24.678Z,1.03
2023-05-09T00:53:24.730Z,1.02
2023-05-09T00:54:24.858Z,1.03
2023-05-09T00:55:24.848Z,1.02
2023-05-09T00:56:24.882Z,1.02
2023-05-09T00:57:24.919Z,1.01
2023-05-09T00:58:24.937Z,1.01
2023-05-09T00:59:24.968Z,1.02
2023-05-09T01:00:25.070Z,1.01
2023-05-09T01:01:25.128Z,1.01
2023-05-09T01:02:25.145Z,0.99
2023-05-09T01:03:25.233Z,1.02
2023-05-09T01:04:25.173Z,1.01
2023-05-09T01:05:25.308Z,1.00
2023-05-09T01:06:25.290Z,0.99
2023-05-09T01:07:25.311Z,1.01
2023-05-09T01:08:25.360Z,1.00
2023-05-09T01:09:25.421Z,1.00
2023-05-09T01:10:25.553Z,1.01
2023-05-09T01:11:25.501Z,0.98
2023-05-09T01:12:25.567Z,0.98
2023-05-09T01:13:25.676Z,0.97
2023-05-09T01:14:25.624Z,0.99
2023-05-09T01:15:25.700Z,0.98
2023-05-09T01:16:25.880Z,0.99
2023-05-09T01:17:25.802Z,0.98
2023-05-09T01:18:25.857Z,0.97
2023-05-09T01:19:25.882Z,0.99
2023-05-09T01:20:25.917Z,0.99
2023-05-09T01:21:25.989Z,0.98
2023-05-09T01:22:26.016Z,0.96
2023-05-09T01:23:26.064Z,0.97
2023-05-09T01:24:26.108Z,0.94
2023-05-09T01:25:26.144Z,0.97
2023-05-09T01:26:26.303Z,0.96
2023-05-09T01:27:26.241Z,0.98
2023-05-09T01:28:26.270Z,0.96
2023-05-09T01:29:26.354Z,0.97
2023-05-09T01:30:26.402Z,0.94
2023-05-09T01:31:26.503Z,0.96
2023-05-09T01:32:26.520Z,0.95
2023-05-09T01:33:26.530Z,0.95
2023-05-09T01:34:26.573Z,0.95
2023-05-09T01:35:26.633Z,0.94
2023-05-09T01:36:26.671Z,0.96
2023-05-09T01:37:26.676Z,0.95
2023-05-09T01:38:26.759Z,0.95
2023-05-09T01:39:26.770Z,0.96
2023-05-09T01:40:26.859Z,0.93
2023-05-09T01:41:26.881Z,0.95
2023-05-09T01:42:26.994Z,0.93
2023-05-09T01:43:26.973Z,0.96
2023-05-09T01:44:27.024Z,0.94
2023-05-09T01:45:27.074Z,0.93
2023-05-09T01:46:27.146Z,0.93
2023-05-09T01:47:27.196Z,0.93
2023-05-09T01:48:27.228Z,0.94
2023-05-09T01:49:27.232Z,0.92
2023-05-09T01:50:27.289Z,0.92
2023-05-09T01:51:27.329Z,0.92
2023-05-09T01:52:27.391Z,0.92
2023-05-09T01:53:27.443Z,0.93
2023-05-09T01:54:27.480Z,0.91
2023-05-09T01:55:27.507Z,0.94
2023-05-09T01:56:27.583Z,0.93
2023-05-09T01:57:27.619Z,0.92
2023-05-09T01:58:27.776Z,0.90
2023-05-09T01:59:27.771Z,0.93
2023-05-09T02:00:27.906Z,0.93
2023-05-09T02:01:27.812Z,0.91
2023-05-09T02:02:27.880Z,0.92
2023-05-09T02:03:27.902Z,0.89
2023-05-09T02:04:27.924Z,0.88
2023-05-09T02:05:27.980Z,0.89
2023-05-09T02:06:28.017Z,0.91
2023-05-09T02:07:28.075Z,0.90
2023-05-09T02:08:28.132Z,0.89
2023-05-09T02:09:28.182Z,0.90
2023-05-09T02:10:28.212Z,0.90
2023-05-09T02:11:28.246Z,0.88
2023-05-09T02:12:28.322Z,0.89
2023-05-09T02:13:28.423Z,0.90
2023-05-09T02:14:28.499Z,0.90
2023-05-09T02:15:28.478Z,0.89
2023-05-09T02:16:28.505Z,0.88
2023-05-09T02:17:28.547Z,0.89
2023-05-09T02:18:28.597Z,0.88
2023-05-09T02:19:28.695Z,0.89
2023-05-09T02:20:28.705Z,0.88
2023-05-09T02:21:29.256Z,0.88
2023-05-09T02:22:28.763Z,0.89
2023-05-09T02:23:28.808Z,0.88
2023-05-09T02:24:28.835Z,0.89
2023-05-09T02:25:28.934Z,0.86
2023-05-09T02:26:28.955Z,0.89
2023-05-09T02:27:28.999Z,0.90
2023-05-09T02:28:29.038Z,0.88
2023-05-09T02:29:29.090Z,0.88
2023-05-09T02:30:29.218Z,0.89
2023-05-09T02:31:29.184Z,0.88
2023-05-09T02:32:29.313Z,0.88
2023-05-09T02:33:29.284Z,0.88
2023-05-09T02:34:29.292Z,0.89
2023-05-09T02:35:29.377Z,0.86
2023-05-09T02:36:29.396Z,0.87
2023-05-09T02:37:29.466Z,0.86
2023-05-09T02:38:29.506Z,0.88
2023-05-09T02:39:29.533Z,0.87
2023-05-09T02:40:29.574Z,0.85
2023-05-09T02:41:29.641Z,0.86
2023-05-09T02:42:29.683Z,0.88
2023-05-09T02:43:29.726Z,0.86
2023-05-09T02:44:29.739Z,0.85
2023-05-09T02:45:29.812Z,0.85
2023-05-09T02:46:29.970Z,0.85
2023-05-09T02:47:29.928Z,0.84
2023-05-09T02:48:29.939Z,0.85
2023-05-09T02:49:32.560Z,0.87
2023-05-09T02:50:29.979Z,0.86
2023-05-09T02:51:29.957Z,0.87
2023-05-09T02:52:30.500Z,0.86
2023-05-09T02:53:29.933Z,0.88
2023-05-09T02:54:29.958Z,0.86
2023-05-09T02:55:29.933Z,0.86
2023-05-09T02:56:29.899Z,0.87
2023-05-09T02:57:29.895Z,0.87
2023-05-09T02:58:29.898Z,0.85
2023-05-09T02:59:29.894Z,0.87
2023-05-09T03:00:29.928Z,0.86
2023-05-09T03:01:29.924Z,0.86
2023-05-09T03:02:30.044Z,0.83
2023-05-09T03:03:29.931Z,0.85
2023-05-09T03:04:29.860Z,0.83
2023-05-09T03:05:29.860Z,0.85
2023-05-09T03:06:29.866Z,0.82
2023-05-09T03:07:29.868Z,0.83
2023-05-09T03:08:29.831Z,0.82
2023-05-09T03:09:29.818Z,0.82
2023-05-09T03:10:29.853Z,0.83
2023-05-09T03:11:29.795Z,0.83
2023-05-09T03:12:29.834Z,0.82
2023-05-09T03:13:29.839Z,0.80
2023-05-09T03:14:29.799Z,0.85
2023-05-09T03:15:29.775Z,0.83
2023-05-09T03:16:29.950Z,0.83
2023-05-09T03:17:29.817Z,0.81
2023-05-09T03:18:29.864Z,0.82
2023-05-09T03:19:29.779Z,0.82
2023-05-09T03:20:29.752Z,0.83
2023-05-09T03:21:29.762Z,0.80
2023-05-09T03:22:29.764Z,0.80
2023-05-09T03:23:29.741Z,0.82
2023-05-09T03:24:29.729Z,0.81
2023-05-09T03:25:29.744Z,0.81
2023-05-09T03:26:29.743Z,0.82
2023-05-09T03:27:29.711Z,0.81
2023-05-09T03:28:29.721Z,0.79
2023-05-09T03:29:29.697Z,0.82
2023-05-09T03:30:29.723Z,0.80
2023-05-09T03:31:29.774Z,0.81
2023-05-09T03:32:29.876Z,0.81
2023-05-09T03:33:29.801Z,0.79
2023-05-09T03:34:29.929Z,0.80
2023-05-09T03:35:29.922Z,0.79
2023-05-09T03:36:29.930Z,0.78
2023-05-09T03:37:29.974Z,0.79
2023-05-09T03:38:30.070Z,0.79
2023-05-09T03:39:30.096Z,0.79
2023-05-09T03:40:30.116Z,0.78
2023-05-09T03:41:30.149Z,0.79
2023-05-09T03:42:30.201Z,0.80
2023-05-09T03:43:30.236Z,0.80
2023-05-09T03:44:30.299Z,0.79
2023-05-09T03:45:30.344Z,0.81
2023-05-09T03:46:30.415Z,0.78
2023-05-09T03:47:30.511Z,0.78
2023-05-09T03:48:30.517Z,0.80
2023-05-09T03:49:30.501Z,0.79
2023-05-09T03:50:30.657Z,0.78
2023-05-09T03:51:30.578Z,0.78
2023-05-09T03:52:30.658Z,0.79
2023-05-09T03:53:30.686Z,0.79
2023-05-09T03:54:30.759Z,0.76
2023-05-09T03:55:30.775Z,0.78
2023-05-09T03:56:30.855Z,0.78
2023-05-09T03:57:30.874Z,0.76
2023-05-09T03:58:30.915Z,0.79
2023-05-09T03:59:30.966Z,0.76
2023-05-09T04:00:31.008Z,0.78
2023-05-09T04:01:31.051Z,0.77
2023-05-09T04:02:31.322Z,0.78
2023-05-09T04:03:31.205Z,0.77
2023-05-09T04:04:31.203Z,0.77
2023-05-09T04:05:31.256Z,0.78
2023-05-09T04:06:31.362Z,0.76
2023-05-09T04:07:31.299Z,0.77
2023-05-09T04:08:31.370Z,0.76
2023-05-09T04:09:31.393Z,0.77
2023-05-09T04:10:31.425Z,0.77
2023-05-09T04:11:31.489Z,0.76
2023-05-09T04:12:31.533Z,0.77
2023-05-09T04:13:31.644Z,0.75
2023-05-09T04:14:31.612Z,0.75
2023-05-09T04:15:31.680Z,0.77
2023-05-09T04:16:31.731Z,0.75
2023-05-09T04:17:31.801Z,0.75
2023-05-09T04:18:31.782Z,0.75
2023-05-09T04:19:31.857Z,0.74
2023-05-09T04:20:31.920Z,0.75
2023-05-09T04:21:31.976Z,0.73
2023-05-09T04:22:32.068Z,0.74
2023-05-09T04:23:32.053Z,0.74
2023-05-09T04:24:32.104Z,0.74
2023-05-09T04:25:32.132Z,0.73
2023-05-09T04:26:32.181Z,0.73
2023-05-09T04:27:32.200Z,0.73
2023-05-09T04:28:32.274Z,0.75
2023-05-09T04:29:32.318Z,0.74
2023-05-09T04:30:32.384Z,0.73
2023-05-09T04:31:32.470Z,0.74
2023-05-09T04:32:32.462Z,0.73
2023-05-09T04:33:32.452Z,0.74
2023-05-09T04:34:32.533Z,0.73
2023-05-09T04:35:32.634Z,0.73
2023-05-09T04:36:32.610Z,0.74
2023-05-09T04:37:32.736Z,0.74
2023-05-09T04:38:32.817Z,0.74
2023-05-09T04:39:32.740Z,0.73
2023-05-09T04:40:32.786Z,0.73
2023-05-09T04:41:32.824Z,0.72
2023-05-09T04:42:32.859Z,0.74
2023-05-09T04:43:32.927Z,0.72
2023-05-09T04:44:32.981Z,0.73
2023-05-09T04:45:33.012Z,0.73
2023-05-09T04:46:33.092Z,0.72
2023-05-09T04:47:33.126Z,0.73
2023-05-09T04:48:33.146Z,0.73
2023-05-09T04:49:33.202Z,0.73
2023-05-09T04:50:33.274Z,0.73
2023-05-09T04:51:33.296Z,0.72
2023-05-09T04:52:33.319Z,0.73
2023-05-09T04:53:33.383Z,0.73
2023-05-09T04:54:33.537Z,0.72
2023-05-09T04:55:33.470Z,0.72
2023-05-09T04:56:33.542Z,0.72
2023-05-09T04:57:33.583Z,0.71
2023-05-09T04:58:33.636Z,0.73
2023-05-09T04:59:33.696Z,0.71
2023-05-09T05:00:40.768Z,0.70
2023-05-09T05:01:33.803Z,0.71
2023-05-09T05:02:33.777Z,0.71
2023-05-09T05:03:33.729Z,0.71
2023-05-09T05:04:33.771Z,0.72
2023-05-09T05:05:36.768Z,0.72
2023-05-09T05:06:33.712Z,0.71
2023-05-09T05:07:33.693Z,0.71
2023-05-09T05:08:33.686Z,0.71
2023-05-09T05:09:33.675Z,0.72
2023-05-09T05:10:33.767Z,0.72
2023-05-09T05:11:33.697Z,0.71
2023-05-09T05:12:33.659Z,0.72
2023-05-09T05:13:33.634Z,0.71
2023-05-09T05:14:33.637Z,0.71
2023-05-09T05:15:33.626Z,0.70
2023-05-09T05:16:33.701Z,0.70
2023-05-09T05:17:33.662Z,0.72
2023-05-09T05:18:33.615Z,0.72
2023-05-09T05:19:33.650Z,0.70
2023-05-09T05:20:33.634Z,0.70
2023-05-09T05:21:33.614Z,0.70
2023-05-09T05:22:33.583Z,0.71
2023-05-09T05:23:33.576Z,0.70
2023-05-09T05:24:33.568Z,0.70
2023-05-09T05:25:33.581Z,0.72
2023-05-09T05:26:33.667Z,0.69
2023-05-09T05:27:33.558Z,0.70
2023-05-09T05:28:33.574Z,0.70
2023-05-09T05:29:33.556Z,0.70
2023-05-09T05:30:34.466Z,0.69
2023-05-09T05:31:33.638Z,0.70
2023-05-09T05:32:33.543Z,0.71
2023-05-09T05:33:33.538Z,0.74
2023-05-09T05:34:33.498Z,1.15
2023-05-09T05:35:33.498Z,1.11
2023-05-09T05:36:33.633Z,1.20
2023-05-09T05:37:33.554Z,1.32
2023-05-09T05:38:33.477Z,1.36
2023-05-09T05:39:33.540Z,1.52
2023-05-09T05:40:33.498Z,1.56
2023-05-09T05:41:33.628Z,1.81
2023-05-09T05:42:33.613Z,1.77
2023-05-09T05:43:33.627Z,2.02
2023-05-09T05:44:33.625Z,1.89
2023-05-09T05:45:40.726Z,1.75
2023-05-09T05:46:34.194Z,1.76
2023-05-09T05:47:33.658Z,1.82
2023-05-09T05:48:33.641Z,2.17
2023-05-09T05:49:33.614Z,2.36
2023-05-09T05:50:33.635Z,2.87
2023-05-09T05:51:33.619Z,2.87
2023-05-09T05:52:33.607Z,2.92
2023-05-09T05:53:33.627Z,2.62
2023-05-09T05:54:33.631Z,2.46
2023-05-09T05:55:33.607Z,2.56
2023-05-09T05:56:33.588Z,2.60
2023-05-09T05:57:33.614Z,2.43
2023-05-09T05:58:33.671Z,2.35
2023-05-09T05:59:33.565Z,2.37
2023-05-09T06:00:33.556Z,2.32
2023-05-09T06:01:33.585Z,2.20
2023-05-09T06:02:33.732Z,2.18
2023-05-09T06:03:33.631Z,2.25
2023-05-09T06:04:33.547Z,2.37
2023-05-09T06:05:33.573Z,2.10
2023-05-09T06:06:33.522Z,2.23
2023-05-09T06:07:34.169Z,2.48
2023-05-09T06:08:33.504Z,2.42
2023-05-09T06:09:33.547Z,2.49
2023-05-09T06:10:33.485Z,2.52
2023-05-09T06:11:33.513Z,2.48
2023-05-09T06:12:33.502Z,2.47
2023-05-09T06:13:33.494Z,2.49
2023-05-09T06:14:33.570Z,2.54
2023-05-09T06:15:33.482Z,2.45
2023-05-09T06:16:33.512Z,2.48
2023-05-09T06:17:33.529Z,2.52
2023-05-09T06:18:33.445Z,2.59
2023-05-09T06:19:33.429Z,2.60
2023-05-09T06:20:33.470Z,2.55
2023-05-09T06:21:33.520Z,2.58
2023-05-09T06:22:34.159Z,2.41
2023-05-09T06:23:33.578Z,2.37
2023-05-09T06:24:36.242Z,2.37
2023-05-09T06:25:33.588Z,2.35
2023-05-09T06:26:33.613Z,2.15
2023-05-09T06:27:33.652Z,2.21
2023-05-09T06:28:33.581Z,2.96
2023-05-09T06:29:33.601Z,3.28
2023-05-09T06:30:33.684Z,3.29
2023-05-09T06:31:33.657Z,3.18
2023-05-09T06:32:33.627Z,3.22
2023-05-09T06:33:33.554Z,3.10
2023-05-09T06:34:33.626Z,2.83
2023-05-09T06:35:33.562Z,3.04
2023-05-09T06:36:33.595Z,3.09
2023-05-09T06:37:33.491Z,3.33
2023-05-09T06:38:33.531Z,3.56
2023-05-09T06:39:33.501Z,3.83
2023-05-09T06:40:33.492Z,3.61
2023-05-09T06:41:33.474Z,3.54
2023-05-09T06:42:33.516Z,3.21
2023-05-09T06:43:33.495Z,3.23
2023-05-09T06:44:33.476Z,3.14
2023-05-09T06:45:33.526Z,3.03
2023-05-09T06:46:33.603Z,3.26
2023-05-09T06:47:33.739Z,3.13
2023-05-09T06:48:33.444Z,3.27
2023-05-09T06:49:33.429Z,3.37
2023-05-09T06:50:33.437Z,3.36
2023-05-09T06:51:33.459Z,3.53
2023-05-09T06:52:33.412Z,3.58
2023-05-09T06:53:33.784Z,3.37
2023-05-09T06:54:33.425Z,3.55
2023-05-09T06:55:33.408Z,3.62
2023-05-09T06:56:33.398Z,3.52
2023-05-09T06:57:33.396Z,3.50
2023-05-09T06:58:33.676Z,3.17
2023-05-09T06:59:33.441Z,3.15
2023-05-09T07:00:33.383Z,3.32
2023-05-09T07:01:33.421Z,3.54
2023-05-09T07:02:33.516Z,3.28
2023-05-09T07:03:33.351Z,3.48
2023-05-09T07:04:33.358Z,3.49
2023-05-09T07:05:33.339Z,3.43
2023-05-09T07:06:33.347Z,3.42
2023-05-09T07:07:33.321Z,3.07
2023-05-09T07:08:33.336Z,2.99
2023-05-09T07:09:33.316Z,3.01
2023-05-09T07:10:33.299Z,2.97
2023-05-09T07:11:33.315Z,2.83
2023-05-09T07:12:33.307Z,3.01
2023-05-09T07:13:33.733Z,3.33
2023-05-09T07:14:33.258Z,3.20
2023-05-09T07:15:41.240Z,3.36
2023-05-09T07:16:37.310Z,3.37
2023-05-09T07:17:33.309Z,3.37
2023-05-09T07:18:33.332Z,3.41
2023-05-09T07:19:33.267Z,3.43
2023-05-09T07:20:33.205Z,3.49
2023-05-09T07:21:33.219Z,3.43
2023-05-09T07:22:35.593Z,3.41
2023-05-09T07:23:33.230Z,3.42
2023-05-09T07:24:33.227Z,3.45
2023-05-09T07:25:33.215Z,3.46
2023-05-09T07:26:33.215Z,3.22
2023-05-09T07:27:33.192Z,3.24
2023-05-09T07:28:33.192Z,3.48
2023-05-09T07:29:33.160Z,3.33
2023-05-09T07:30:33.176Z,2.64
2023-05-09T07:31:34.553Z,2.84
2023-05-09T07:32:33.199Z,2.85
2023-05-09T07:33:33.156Z,2.46
2023-05-09T07:34:33.212Z,2.13
2023-05-09T07:35:33.166Z,1.94
2023-05-09T07:36:34.830Z,1.81
2023-05-09T07:37:33.097Z,1.96
2023-05-09T07:38:33.191Z,1.92
2023-05-09T07:39:33.120Z,1.77
2023-05-09T07:40:33.168Z,1.74
2023-05-09T07:41:33.202Z,1.65
2023-05-09T07:42:33.273Z,1.59
2023-05-09T07:43:33.717Z,1.43
2023-05-09T07:44:33.375Z,1.53
2023-05-09T07:45:33.426Z,1.41
2023-05-09T07:46:33.450Z,1.37
2023-05-09T07:47:33.516Z,1.42
2023-05-09T07:48:33.573Z,1.42
2023-05-09T07:49:33.612Z,1.33
2023-05-09T07:50:33.733Z,1.19
2023-05-09T07:51:33.733Z,0.95
2023-05-09T07:52:33.796Z,0.92
2023-05-09T07:53:33.831Z,0.89
2023-05-09T07:54:33.848Z,1.00
2023-05-09T07:55:33.938Z,0.93
2023-05-09T07:56:33.997Z,0.96
2023-05-09T07:57:34.069Z,0.96
2023-05-09T07:58:34.141Z,0.91
2023-05-09T07:59:34.164Z,0.92
2023-05-09T08:00:34.215Z,0.92
2023-05-09T08:01:34.283Z,0.90
2023-05-09T08:02:34.439Z,0.95
2023-05-09T08:03:34.530Z,0.90
2023-05-09T08:04:34.599Z,0.91
2023-05-09T08:05:34.518Z,0.90
2023-05-09T08:06:34.647Z,0.82
2023-05-09T08:07:34.608Z,0.81
2023-05-09T08:08:34.661Z,0.74
2023-05-09T08:09:34.735Z,0.76
2023-05-09T08:10:34.770Z,0.79
2023-05-09T08:11:34.816Z,0.85
2023-05-09T08:12:34.848Z,0.93
2023-05-09T08:13:35.253Z,0.90
2023-05-09T08:14:34.905Z,0.93
2023-05-09T08:15:35.002Z,0.94
2023-05-09T08:16:35.041Z,0.96
2023-05-09T08:17:35.769Z,0.93
2023-05-09T08:18:35.006Z,0.96
2023-05-09T08:19:35.198Z,1.02
2023-05-09T08:20:35.026Z,1.08
2023-05-09T08:21:35.059Z,1.13
2023-05-09T08:22:35.158Z,1.23
2023-05-09T08:23:35.069Z,1.29
2023-05-09T08:24:35.248Z,1.59
2023-05-09T08:25:35.126Z,1.69
2023-05-09T08:26:35.078Z,1.73
2023-05-09T08:27:35.121Z,1.68
2023-05-09T08:28:35.226Z,1.72
2023-05-09T08:29:35.282Z,1.77
2023-05-09T08:30:35.330Z,1.87
2023-05-09T08:31:35.472Z,1.89
2023-05-09T08:32:35.405Z,1.89
2023-05-09T08:33:35.482Z,1.83
2023-05-09T08:34:35.738Z,1.88
2023-05-09T08:35:35.590Z,1.84
2023-05-09T08:36:35.596Z,1.75
2023-05-09T08:37:35.932Z,1.79
2023-05-09T08:38:35.781Z,1.79
2023-05-09T08:39:35.746Z,1.80
2023-05-09T08:40:35.778Z,1.78
2023-05-09T08:41:35.823Z,1.76
2023-05-09T08:42:35.890Z,1.77
2023-05-09T08:43:35.922Z,1.73
2023-05-09T08:44:35.999Z,1.76
2023-05-09T08:45:36.146Z,1.72
2023-05-09T08:46:36.082Z,1.74
2023-05-09T08:47:36.196Z,1.74
2023-05-09T08:48:36.252Z,1.74
2023-05-09T08:49:36.296Z,1.71
2023-05-09T08:50:36.367Z,1.71
2023-05-09T08:51:36.412Z,1.81
2023-05-09T08:52:36.419Z,1.89
2023-05-09T08:53:36.429Z,2.02
2023-05-09T08:54:36.562Z,2.21
2023-05-09T08:55:36.527Z,2.13
2023-05-09T08:56:36.586Z,2.21
2023-05-09T08:57:36.711Z,2.20
2023-05-09T08:58:36.739Z,2.56
2023-05-09T08:59:37.218Z,2.30
2023-05-09T09:00:36.825Z,2.10
2023-05-09T09:01:36.913Z,2.05
2023-05-09T09:02:36.993Z,1.93
2023-05-09T09:03:37.004Z,1.92
2023-05-09T09:04:37.109Z,1.83
2023-05-09T09:05:41.716Z,1.95
2023-05-09T09:06:38.095Z,1.95
2023-05-09T09:07:37.086Z,1.97
2023-05-09T09:08:37.098Z,2.00
2023-05-09T09:09:37.111Z,2.05
2023-05-09T09:10:37.150Z,2.06
2023-05-09T09:11:37.071Z,1.85
2023-05-09T09:12:37.034Z,1.87
2023-05-09T09:13:37.030Z,1.73
2023-05-09T09:14:38.016Z,1.73
2023-05-09T09:15:37.097Z,1.74
2023-05-09T09:16:37.076Z,1.65
2023-05-09T09:17:37.117Z,1.54
2023-05-09T09:18:38.181Z,1.58
2023-05-09T09:19:37.292Z,1.30
2023-05-09T09:20:37.002Z,1.20
2023-05-09T09:21:37.089Z,1.34
2023-05-09T09:22:36.985Z,1.33
2023-05-09T09:23:36.975Z,1.37
2023-05-09T09:24:37.032Z,1.39
2023-05-09T09:25:36.973Z,1.37
2023-05-09T09:26:37.056Z,1.27
2023-05-09T09:27:36.955Z,1.07
2023-05-09T09:28:36.997Z,0.75
2023-05-09T09:29:37.003Z,0.72
2023-05-09T09:30:37.002Z,0.67
2023-05-09T09:31:37.066Z,0.53
2023-05-09T09:32:37.113Z,0.52
2023-05-09T09:33:37.086Z,0.66
2023-05-09T09:34:37.054Z,0.65
2023-05-09T09:35:37.272Z,0.74
2023-05-09T09:36:37.131Z,0.81
2023-05-09T09:37:37.125Z,0.79
2023-05-09T09:38:37.160Z,0.90
2023-05-09T09:39:37.130Z,0.93
2023-05-09T09:40:37.162Z,0.96
2023-05-09T09:41:37.161Z,0.81
2023-05-09T09:42:37.249Z,0.52
2023-05-09T09:43:37.203Z,0.44
2023-05-09T09:44:37.235Z,0.48
2023-05-09T09:45:37.432Z,0.51
2023-05-09T09:46:37.480Z,0.51
2023-05-09T09:47:37.413Z,0.50
2023-05-09T09:48:37.403Z,0.50
2023-05-09T09:49:37.476Z,0.53
2023-05-09T09:50:37.796Z,0.50
2023-05-09T09:51:37.538Z,0.50
2023-05-09T09:52:37.651Z,0.50
2023-05-09T09:53:37.649Z,0.51
2023-05-09T09:54:37.741Z,0.49
2023-05-09T09:55:37.782Z,0.51
2023-05-09T09:56:37.838Z,0.53
2023-05-09T09:57:37.929Z,0.52
2023-05-09T09:58:38.033Z,0.54
2023-05-09T09:59:37.997Z,0.53
2023-05-09T10:00:38.257Z,0.57
2023-05-09T10:01:38.131Z,0.57
2023-05-09T10:02:38.196Z,0.53
2023-05-09T10:03:38.808Z,0.48
2023-05-09T10:04:38.256Z,0.46
2023-05-09T10:05:38.793Z,0.48
2023-05-09T10:06:38.406Z,0.50
2023-05-09T10:07:38.467Z,0.51
2023-05-09T10:08:38.571Z,0.49
2023-05-09T10:09:38.650Z,0.52
2023-05-09T10:10:38.639Z,0.60
2023-05-09T10:11:38.672Z,0.51
2023-05-09T10:12:38.730Z,0.53
2023-05-09T10:13:38.862Z,0.61
2023-05-09T10:14:38.912Z,0.68
2023-05-09T10:15:52.212Z,0.61
2023-05-09T10:16:43.956Z,0.62
2023-05-09T10:17:38.964Z,0.62
2023-05-09T10:18:38.943Z,0.62
2023-05-09T10:19:38.818Z,0.64
2023-05-09T10:20:38.776Z,0.60
2023-05-09T10:21:38.788Z,0.61
2023-05-09T10:22:38.802Z,0.50
2023-05-09T10:23:38.776Z,0.50
2023-05-09T10:24:38.793Z,0.49
2023-05-09T10:25:38.780Z,0.51
2023-05-09T10:26:38.767Z,0.58
2023-05-09T10:27:38.762Z,0.56
2023-05-09T10:28:38.744Z,0.60
2023-05-09T10:29:38.748Z,0.54
2023-05-09T10:30:38.854Z,0.61
2023-05-09T10:31:38.782Z,0.69
2023-05-09T10:32:38.736Z,0.75
2023-05-09T10:33:38.725Z,0.64
2023-05-09T10:34:38.699Z,0.56
2023-05-09T10:35:38.679Z,0.50
2023-05-09T10:36:38.722Z,0.50
2023-05-09T10:37:38.727Z,0.55
2023-05-09T10:38:38.666Z,0.68
2023-05-09T10:39:38.673Z,0.87
2023-05-09T10:40:38.817Z,1.10
2023-05-09T10:41:38.671Z,1.54
2023-05-09T10:42:38.658Z,1.73
2023-05-09T10:43:38.623Z,1.59
2023-05-09T10:44:38.635Z,1.61
2023-05-09T10:45:38.647Z,1.24
2023-05-09T10:46:38.742Z,1.29
2023-05-09T10:47:38.728Z,1.74
2023-05-09T10:48:38.740Z,2.04
2023-05-09T10:49:38.618Z,2.13
2023-05-09T10:50:38.630Z,2.36
2023-05-09T10:51:38.616Z,2.39
2023-05-09T10:52:38.595Z,1.78
2023-05-09T10:53:38.590Z,2.25
2023-05-09T10:54:38.648Z,1.46
2023-05-09T10:55:38.613Z,0.92
2023-05-09T10:56:38.584Z,1.15
2023-05-09T10:57:38.616Z,1.39
2023-05-09T10:58:38.610Z,0.61
2023-05-09T10:59:38.545Z,0.48
2023-05-09T11:00:38.818Z,0.50
2023-05-09T11:01:38.579Z,0.52
2023-05-09T11:02:38.673Z,0.69
2023-05-09T11:03:38.577Z,0.69
2023-05-09T11:04:38.556Z,0.83
2023-05-09T11:05:38.807Z,1.22
2023-05-09T11:06:38.514Z,0.97
2023-05-09T11:07:38.615Z,1.09
2023-05-09T11:08:38.532Z,1.47
2023-05-09T11:09:38.614Z,1.93
2023-05-09T11:10:38.612Z,0.86
2023-05-09T11:11:38.635Z,0.44
2023-05-09T11:12:38.587Z,0.40
2023-05-09T11:13:38.609Z,0.42
2023-05-09T11:14:38.633Z,0.35
2023-05-09T11:15:38.680Z,0.41
2023-05-09T11:16:38.891Z,0.50
2023-05-09T11:17:38.865Z,0.51
2023-05-09T11:18:39.021Z,0.50
2023-05-09T11:19:38.900Z,0.55
2023-05-09T11:20:38.961Z,0.37
2023-05-09T11:21:39.026Z,0.50
2023-05-09T11:22:39.099Z,0.77
2023-05-09T11:23:39.153Z,0.88
2023-05-09T11:24:39.177Z,0.73
2023-05-09T11:25:39.305Z,0.79
2023-05-09T11:26:39.290Z,0.83
2023-05-09T11:27:39.313Z,0.93
2023-05-09T11:28:39.303Z,1.22
2023-05-09T11:29:39.345Z,1.74
2023-05-09T11:30:39.805Z,2.18
2023-05-09T11:31:39.416Z,2.45
2023-05-09T11:32:39.429Z,2.63
2023-05-09T11:33:39.399Z,2.65
2023-05-09T11:34:39.533Z,3.30
2023-05-09T11:35:39.818Z,3.29
2023-05-09T11:36:39.541Z,3.51
2023-05-09T11:37:39.629Z,4.12
2023-05-09T11:38:39.654Z,4.42
2023-05-09T11:39:40.302Z,4.99
2023-05-09T11:40:39.787Z,5.48
2023-05-09T11:41:39.827Z,5.72
2023-05-09T11:42:39.862Z,6.28
2023-05-09T11:43:39.952Z,6.80
2023-05-09T11:44:39.974Z,7.22
2023-05-09T11:45:40.043Z,7.50
2023-05-09T11:46:40.067Z,7.82
2023-05-09T11:47:40.103Z,8.26
2023-05-09T11:48:40.148Z,8.50
2023-05-09T11:49:40.188Z,8.50
2023-05-09T11:50:40.322Z,8.66
2023-05-09T11:51:40.297Z,9.05
2023-05-09T11:52:40.322Z,9.57
2023-05-09T11:53:40.356Z,9.87
2023-05-09T11:54:40.416Z,10.15
2023-05-09T11:55:40.442Z,10.59
2023-05-09T11:56:40.485Z,10.91
2023-05-09T11:57:40.526Z,11.33
2023-05-09T11:58:40.525Z,11.75
2023-05-09T11:59:40.557Z,12.24
2023-05-09T12:00:40.592Z,12.35
2023-05-09T12:01:40.612Z,12.94
2023-05-09T12:02:40.711Z,13.39
2023-05-09T12:03:40.797Z,13.74
2023-05-09T12:04:40.885Z,13.75
2023-05-09T12:05:40.721Z,13.95
2023-05-09T12:06:40.866Z,14.71
2023-05-09T12:07:40.802Z,15.06
2023-05-09T12:08:40.843Z,15.20
2023-05-09T12:09:40.898Z,15.18
2023-05-09T12:10:40.905Z,15.34
2023-05-09T12:11:40.958Z,16.09
2023-05-09T12:12:41.001Z,16.38
2023-05-09T12:13:40.976Z,16.72
2023-05-09T12:14:41.769Z,17.68
2023-05-09T12:15:43.896Z,17.60
2023-05-09T12:16:41.083Z,18.25
2023-05-09T12:17:41.058Z,18.80
2023-05-09T12:18:41.012Z,19.03
2023-05-09T12:19:41.024Z,19.23
2023-05-09T12:20:41.014Z,19.71
2023-05-09T12:21:41.006Z,19.65
2023-05-09T12:22:41.198Z,20.85
2023-05-09T12:23:40.986Z,23.39
2023-05-09T12:24:40.998Z,23.95
2023-05-09T12:25:40.978Z,31.51
2023-05-09T12:26:40.960Z,20.33
2023-05-09T12:27:41.009Z,21.34
2023-05-09T12:28:40.964Z,19.74
2023-05-09T12:29:40.928Z,20.74
2023-05-09T12:30:40.958Z,22.15
2023-05-09T12:31:40.990Z,22.95
2023-05-09T12:32:40.907Z,23.34
2023-05-09T12:33:40.946Z,23.48
2023-05-09T12:34:40.888Z,22.63
2023-05-09T12:35:40.904Z,23.81
2023-05-09T12:36:40.904Z,23.94
2023-05-09T12:37:40.889Z,25.99
2023-05-09T12:38:40.985Z,26.75
2023-05-09T12:39:40.851Z,27.44
2023-05-09T12:40:40.875Z,29.30
2023-05-09T12:41:46.976Z,30.43
2023-05-09T12:42:41.836Z,30.52
2023-05-09T12:43:40.859Z,30.44
2023-05-09T12:44:40.820Z,30.66
2023-05-09T12:45:40.844Z,30.65
2023-05-09T12:46:40.844Z,30.65
2023-05-09T12:47:40.819Z,31.49
2023-05-09T12:48:40.841Z,30.63
2023-05-09T12:49:40.831Z,31.68
2023-05-09T12:50:40.825Z,31.57
2023-05-09T12:51:40.797Z,32.38
2023-05-09T12:52:54.135Z,33.82
2023-05-09T12:53:41.790Z,33.95
2023-05-09T12:54:40.869Z,34.30
2023-05-09T12:55:40.815Z,35.10
2023-05-09T12:56:40.752Z,36.26
2023-05-09T12:57:40.777Z,38.59
2023-05-09T12:58:40.749Z,36.63
2023-05-09T12:59:40.775Z,22.38
2023-05-09T13:00:40.815Z,19.81
2023-05-09T13:01:40.757Z,26.08
2023-05-09T13:02:40.812Z,9.25
2023-05-09T13:03:40.736Z,5.12
2023-05-09T13:04:40.734Z,3.88
2023-05-09T13:05:40.713Z,2.66
2023-05-09T13:06:40.733Z,2.52
2023-05-09T13:07:40.750Z,2.24
2023-05-09T13:08:40.724Z,1.95
2023-05-09T13:09:40.699Z,1.69
2023-05-09T13:10:40.786Z,1.87
2023-05-09T13:11:40.669Z,2.18
2023-05-09T13:12:40.699Z,1.78
2023-05-09T13:13:40.657Z,1.11
2023-05-09T13:14:40.682Z,1.44
2023-05-09T13:15:40.647Z,2.37
2023-05-09T13:16:40.700Z,2.95